sensor_id;sensor_type;location;lat;lon;timestamp;temperature;humidity
18880;DHT22;9572;52.378;13.404;2023-09-08T00:02:03;16.60;99.90
18880;DHT22;9572;52.378;13.404;2023-09-08T00:04:30;16.60;99.90
18880;DHT22;9572;52.378;13.404;2023-09-08T00:06:58;16.50;99.90
18880;DHT22;9572;52.378;13.404;2023-09-08T00:09:25;16.50;99.90
18880;DHT22;9572;52.378;13.404;2023-09-08T00:11:53;16.50;99.90
18880;DHT22;9572;52.378;13.404;2023-09-08T00:14:21;16.50;99.90
18880;DHT22;9572;52.378;13.404;2023-09-08T00:16:47;16.60;99.90
18880;DHT22;9572;52.378;13.404;2023-09-08T00:19:14;16.50;99.90
18880;DHT22;9572;52.378;13.404;2023-09-08T00:21:41;16.50;99.90
18880;DHT22;9572;52.378;13.404;2023-09-08T00:24:09;16.50;99.90
18880;DHT22;9572;52.378;13.404;2023-09-08T00:26:38;16.60;99.90
18880;DHT22;9572;52.378;13.404;2023-09-08T00:29:06;16.50;99.90
18880;DHT22;9572;52.378;13.404;2023-09-08T00:31:33;16.50;99.90
18880;DHT22;9572;52.378;13.404;2023-09-08T00:34:00;16.60;99.90
18880;DHT22;9572;52.378;13.404;2023-09-08T00:36:27;16.60;99.90
18880;DHT22;9572;52.378;13.404;2023-09-08T00:38:53;16.60;99.90
18880;DHT22;9572;52.378;13.404;2023-09-08T00:41:20;16.60;99.90
18880;DHT22;9572;52.378;13.404;2023-09-08T00:43:49;16.60;99.90
18880;DHT22;9572;52.378;13.404;2023-09-08T00:46:17;16.60;99.90
18880;DHT22;9572;52.378;13.404;2023-09-08T00:48:44;16.60;99.90
18880;DHT22;9572;52.378;13.404;2023-09-08T00:51:11;16.60;99.90
18880;DHT22;9572;52.378;13.404;2023-09-08T00:53:38;16.60;99.90
18880;DHT22;9572;52.378;13.404;2023-09-08T00:56:05;16.50;99.90
18880;DHT22;9572;52.378;13.404;2023-09-08T00:58:33;16.50;99.90
18880;DHT22;9572;52.378;13.404;2023-09-08T01:01:00;16.50;99.90
18880;DHT22;9572;52.378;13.404;2023-09-08T01:03:28;16.40;99.90
18880;DHT22;9572;52.378;13.404;2023-09-08T01:05:55;16.40;99.90
18880;DHT22;9572;52.378;13.404;2023-09-08T01:08:22;16.40;99.90
18880;DHT22;9572;52.378;13.404;2023-09-08T01:10:51;16.40;99.90
18880;DHT22;9572;52.378;13.404;2023-09-08T01:13:18;16.30;99.90
18880;DHT22;9572;52.378;13.404;2023-09-08T01:15:45;16.30;99.90
18880;DHT22;9572;52.378;13.404;2023-09-08T01:18:12;16.30;99.90
18880;DHT22;9572;52.378;13.404;2023-09-08T01:20:55;16.30;99.90
18880;DHT22;9572;52.378;13.404;2023-09-08T01:23:31;16.30;99.90
18880;DHT22;9572;52.378;13.404;2023-09-08T01:26:06;16.20;99.90
18880;DHT22;9572;52.378;13.404;2023-09-08T01:28:34;16.20;99.90
18880;DHT22;9572;52.378;13.404;2023-09-08T01:31:02;16.20;99.90
18880;DHT22;9572;52.378;13.404;2023-09-08T01:33:30;16.20;99.90
18880;DHT22;9572;52.378;13.404;2023-09-08T01:35:57;16.10;99.90
18880;DHT22;9572;52.378;13.404;2023-09-08T01:38:24;16.10;99.90
18880;DHT22;9572;52.378;13.404;2023-09-08T01:40:51;16.10;99.90
18880;DHT22;9572;52.378;13.404;2023-09-08T01:43:19;16.10;99.90
18880;DHT22;9572;52.378;13.404;2023-09-08T01:45:46;16.10;99.90
18880;DHT22;9572;52.378;13.404;2023-09-08T01:48:13;16.10;99.90
18880;DHT22;9572;52.378;13.404;2023-09-08T01:50:40;16.00;99.90
18880;DHT22;9572;52.378;13.404;2023-09-08T01:53:07;16.00;99.90
18880;DHT22;9572;52.378;13.404;2023-09-08T01:55:34;15.90;99.90
18880;DHT22;9572;52.378;13.404;2023-09-08T01:58:00;15.90;99.90
18880;DHT22;9572;52.378;13.404;2023-09-08T02:00:29;15.90;99.90
18880;DHT22;9572;52.378;13.404;2023-09-08T02:02:55;15.90;99.90
18880;DHT22;9572;52.378;13.404;2023-09-08T02:05:22;15.80;99.90
18880;DHT22;9572;52.378;13.404;2023-09-08T02:07:51;15.80;99.90
18880;DHT22;9572;52.378;13.404;2023-09-08T02:10:18;15.80;99.90
18880;DHT22;9572;52.378;13.404;2023-09-08T02:12:46;15.80;99.90
18880;DHT22;9572;52.378;13.404;2023-09-08T02:15:13;15.70;99.90
18880;DHT22;9572;52.378;13.404;2023-09-08T02:17:42;15.70;99.90
18880;DHT22;9572;52.378;13.404;2023-09-08T02:20:10;15.70;99.90
18880;DHT22;9572;52.378;13.404;2023-09-08T02:22:37;15.70;99.90
18880;DHT22;9572;52.378;13.404;2023-09-08T02:25:05;15.60;99.90
18880;DHT22;9572;52.378;13.404;2023-09-08T02:27:32;15.60;99.90
18880;DHT22;9572;52.378;13.404;2023-09-08T02:29:59;15.60;99.90
18880;DHT22;9572;52.378;13.404;2023-09-08T02:32:25;15.60;99.90
18880;DHT22;9572;52.378;13.404;2023-09-08T02:34:54;15.50;99.90
18880;DHT22;9572;52.378;13.404;2023-09-08T02:37:21;15.50;99.90
18880;DHT22;9572;52.378;13.404;2023-09-08T02:39:47;15.50;99.90
18880;DHT22;9572;52.378;13.404;2023-09-08T02:42:14;15.40;99.90
18880;DHT22;9572;52.378;13.404;2023-09-08T02:44:41;15.50;99.90
18880;DHT22;9572;52.378;13.404;2023-09-08T02:47:08;15.40;99.90
18880;DHT22;9572;52.378;13.404;2023-09-08T02:49:36;15.40;99.90
18880;DHT22;9572;52.378;13.404;2023-09-08T02:52:04;15.30;99.90
18880;DHT22;9572;52.378;13.404;2023-09-08T02:54:31;15.30;99.90
18880;DHT22;9572;52.378;13.404;2023-09-08T02:56:58;15.30;99.90
18880;DHT22;9572;52.378;13.404;2023-09-08T02:59:25;15.30;99.90
18880;DHT22;9572;52.378;13.404;2023-09-08T03:01:52;15.30;99.90
18880;DHT22;9572;52.378;13.404;2023-09-08T03:04:19;15.30;99.90
18880;DHT22;9572;52.378;13.404;2023-09-08T03:06:46;15.20;99.90
18880;DHT22;9572;52.378;13.404;2023-09-08T03:09:14;15.20;99.90
18880;DHT22;9572;52.378;13.404;2023-09-08T03:11:41;15.20;99.90
18880;DHT22;9572;52.378;13.404;2023-09-08T03:14:08;15.20;99.90
18880;DHT22;9572;52.378;13.404;2023-09-08T03:16:34;15.10;99.90
18880;DHT22;9572;52.378;13.404;2023-09-08T03:19:01;15.10;99.90
18880;DHT22;9572;52.378;13.404;2023-09-08T03:21:28;15.10;99.90
18880;DHT22;9572;52.378;13.404;2023-09-08T03:23:55;15.10;99.90
18880;DHT22;9572;52.378;13.404;2023-09-08T03:26:23;15.10;99.90
18880;DHT22;9572;52.378;13.404;2023-09-08T03:28:50;15.10;99.90
18880;DHT22;9572;52.378;13.404;2023-09-08T03:31:17;15.00;99.90
18880;DHT22;9572;52.378;13.404;2023-09-08T03:33:44;15.10;99.90
18880;DHT22;9572;52.378;13.404;2023-09-08T03:36:11;15.00;99.90
18880;DHT22;9572;52.378;13.404;2023-09-08T03:38:38;15.00;99.90
18880;DHT22;9572;52.378;13.404;2023-09-08T03:41:06;15.00;99.90
18880;DHT22;9572;52.378;13.404;2023-09-08T03:43:35;15.00;99.90
18880;DHT22;9572;52.378;13.404;2023-09-08T03:46:02;14.90;99.90
18880;DHT22;9572;52.378;13.404;2023-09-08T03:48:29;14.90;99.90
18880;DHT22;9572;52.378;13.404;2023-09-08T03:50:55;14.90;99.90
18880;DHT22;9572;52.378;13.404;2023-09-08T03:53:22;14.90;99.90
18880;DHT22;9572;52.378;13.404;2023-09-08T03:55:49;14.90;99.90
18880;DHT22;9572;52.378;13.404;2023-09-08T03:58:16;14.90;99.90
18880;DHT22;9572;52.378;13.404;2023-09-08T04:00:44;14.90;99.90
18880;DHT22;9572;52.378;13.404;2023-09-08T04:03:11;14.80;99.90
18880;DHT22;9572;52.378;13.404;2023-09-08T04:05:38;14.80;99.90
18880;DHT22;9572;52.378;13.404;2023-09-08T04:08:05;14.80;99.90
18880;DHT22;9572;52.378;13.404;2023-09-08T04:10:32;14.70;99.90
18880;DHT22;9572;52.378;13.404;2023-09-08T04:12:59;14.70;99.90
18880;DHT22;9572;52.378;13.404;2023-09-08T04:15:26;14.70;99.90
18880;DHT22;9572;52.378;13.404;2023-09-08T04:17:54;14.60;99.90
18880;DHT22;9572;52.378;13.404;2023-09-08T04:20:22;14.60;99.90
18880;DHT22;9572;52.378;13.404;2023-09-08T04:22:49;14.60;99.90
18880;DHT22;9572;52.378;13.404;2023-09-08T04:25:16;14.60;99.90
18880;DHT22;9572;52.378;13.404;2023-09-08T04:27:43;14.60;99.90
18880;DHT22;9572;52.378;13.404;2023-09-08T04:30:12;14.50;99.90
18880;DHT22;9572;52.378;13.404;2023-09-08T04:32:39;14.50;99.90
18880;DHT22;9572;52.378;13.404;2023-09-08T04:35:08;14.50;99.90
18880;DHT22;9572;52.378;13.404;2023-09-08T04:37:35;14.50;99.90
18880;DHT22;9572;52.378;13.404;2023-09-08T04:40:02;14.50;99.90
18880;DHT22;9572;52.378;13.404;2023-09-08T04:42:30;14.50;99.90
18880;DHT22;9572;52.378;13.404;2023-09-08T04:44:56;14.50;99.90
18880;DHT22;9572;52.378;13.404;2023-09-08T04:47:23;14.50;99.90
18880;DHT22;9572;52.378;13.404;2023-09-08T04:49:50;14.50;99.90
18880;DHT22;9572;52.378;13.404;2023-09-08T04:52:18;14.50;99.90
18880;DHT22;9572;52.378;13.404;2023-09-08T04:54:45;14.50;99.90
18880;DHT22;9572;52.378;13.404;2023-09-08T04:57:12;14.50;99.90
18880;DHT22;9572;52.378;13.404;2023-09-08T04:59:39;14.50;99.90
18880;DHT22;9572;52.378;13.404;2023-09-08T05:02:06;14.50;99.90
18880;DHT22;9572;52.378;13.404;2023-09-08T05:04:33;14.50;99.90
18880;DHT22;9572;52.378;13.404;2023-09-08T05:07:00;14.50;99.90
18880;DHT22;9572;52.378;13.404;2023-09-08T05:09:28;14.60;99.90
18880;DHT22;9572;52.378;13.404;2023-09-08T05:11:55;14.60;99.90
18880;DHT22;9572;52.378;13.404;2023-09-08T05:14:22;14.60;99.90
18880;DHT22;9572;52.378;13.404;2023-09-08T05:16:50;14.60;99.90
18880;DHT22;9572;52.378;13.404;2023-09-08T05:19:21;14.60;99.90
18880;DHT22;9572;52.378;13.404;2023-09-08T05:21:50;14.70;99.90
18880;DHT22;9572;52.378;13.404;2023-09-08T05:24:17;14.70;99.90
18880;DHT22;9572;52.378;13.404;2023-09-08T05:26:45;14.70;99.90
18880;DHT22;9572;52.378;13.404;2023-09-08T05:29:12;14.80;99.90
18880;DHT22;9572;52.378;13.404;2023-09-08T05:31:39;14.80;99.90
18880;DHT22;9572;52.378;13.404;2023-09-08T05:34:06;14.90;99.90
18880;DHT22;9572;52.378;13.404;2023-09-08T05:36:33;14.90;99.90
18880;DHT22;9572;52.378;13.404;2023-09-08T05:39:02;14.90;99.90
18880;DHT22;9572;52.378;13.404;2023-09-08T05:41:29;15.00;99.90
18880;DHT22;9572;52.378;13.404;2023-09-08T05:43:58;15.00;99.90
18880;DHT22;9572;52.378;13.404;2023-09-08T05:46:25;15.10;99.90
18880;DHT22;9572;52.378;13.404;2023-09-08T05:48:52;15.20;99.90
18880;DHT22;9572;52.378;13.404;2023-09-08T05:51:19;15.30;99.90
18880;DHT22;9572;52.378;13.404;2023-09-08T05:53:46;15.40;99.90
18880;DHT22;9572;52.378;13.404;2023-09-08T05:56:13;15.60;99.90
18880;DHT22;9572;52.378;13.404;2023-09-08T05:58:39;15.80;99.90
18880;DHT22;9572;52.378;13.404;2023-09-08T06:01:08;16.10;99.90
18880;DHT22;9572;52.378;13.404;2023-09-08T06:03:35;16.40;99.90
18880;DHT22;9572;52.378;13.404;2023-09-08T06:06:02;16.60;99.90
18880;DHT22;9572;52.378;13.404;2023-09-08T06:08:29;16.80;99.90
18880;DHT22;9572;52.378;13.404;2023-09-08T06:10:55;17.00;99.90
18880;DHT22;9572;52.378;13.404;2023-09-08T06:13:23;17.20;99.90
18880;DHT22;9572;52.378;13.404;2023-09-08T06:15:50;17.40;99.90
18880;DHT22;9572;52.378;13.404;2023-09-08T06:18:18;17.60;99.90
18880;DHT22;9572;52.378;13.404;2023-09-08T06:20:45;17.80;99.90
18880;DHT22;9572;52.378;13.404;2023-09-08T06:23:12;17.90;99.90
18880;DHT22;9572;52.378;13.404;2023-09-08T06:25:40;17.90;99.90
18880;DHT22;9572;52.378;13.404;2023-09-08T06:28:07;17.90;99.90
18880;DHT22;9572;52.378;13.404;2023-09-08T06:30:34;17.90;99.90
18880;DHT22;9572;52.378;13.404;2023-09-08T06:33:01;17.90;99.90
18880;DHT22;9572;52.378;13.404;2023-09-08T06:35:30;17.90;99.90
18880;DHT22;9572;52.378;13.404;2023-09-08T06:37:57;17.80;99.90
18880;DHT22;9572;52.378;13.404;2023-09-08T06:40:24;17.80;99.90
18880;DHT22;9572;52.378;13.404;2023-09-08T06:42:50;17.90;99.90
18880;DHT22;9572;52.378;13.404;2023-09-08T06:45:17;17.80;99.90
18880;DHT22;9572;52.378;13.404;2023-09-08T06:47:44;17.80;99.90
18880;DHT22;9572;52.378;13.404;2023-09-08T06:50:11;17.90;99.90
18880;DHT22;9572;52.378;13.404;2023-09-08T06:52:40;17.90;99.90
18880;DHT22;9572;52.378;13.404;2023-09-08T06:55:07;17.90;99.90
18880;DHT22;9572;52.378;13.404;2023-09-08T06:57:35;18.00;99.90
18880;DHT22;9572;52.378;13.404;2023-09-08T07:00:02;18.00;99.90
18880;DHT22;9572;52.378;13.404;2023-09-08T07:02:32;18.10;99.90
18880;DHT22;9572;52.378;13.404;2023-09-08T07:04:58;18.20;99.90
18880;DHT22;9572;52.378;13.404;2023-09-08T07:07:26;18.20;99.90
18880;DHT22;9572;52.378;13.404;2023-09-08T07:09:54;18.30;99.90
18880;DHT22;9572;52.378;13.404;2023-09-08T07:12:21;18.40;99.90
18880;DHT22;9572;52.378;13.404;2023-09-08T07:14:48;18.50;99.90
18880;DHT22;9572;52.378;13.404;2023-09-08T07:17:15;18.70;99.90
18880;DHT22;9572;52.378;13.404;2023-09-08T07:19:41;18.80;99.90
18880;DHT22;9572;52.378;13.404;2023-09-08T07:22:08;18.90;99.90
18880;DHT22;9572;52.378;13.404;2023-09-08T07:24:35;18.90;99.90
18880;DHT22;9572;52.378;13.404;2023-09-08T07:27:04;19.10;99.90
18880;DHT22;9572;52.378;13.404;2023-09-08T07:29:30;19.10;99.90
18880;DHT22;9572;52.378;13.404;2023-09-08T07:31:57;19.20;99.90
18880;DHT22;9572;52.378;13.404;2023-09-08T07:34:24;19.30;99.90
18880;DHT22;9572;52.378;13.404;2023-09-08T07:36:51;19.40;99.90
18880;DHT22;9572;52.378;13.404;2023-09-08T07:39:18;19.50;99.90
18880;DHT22;9572;52.378;13.404;2023-09-08T07:41:45;19.60;99.90
18880;DHT22;9572;52.378;13.404;2023-09-08T07:44:13;19.70;99.90
18880;DHT22;9572;52.378;13.404;2023-09-08T07:46:40;19.90;99.90
18880;DHT22;9572;52.378;13.404;2023-09-08T07:49:08;20.00;99.90
18880;DHT22;9572;52.378;13.404;2023-09-08T07:51:35;20.20;99.90
18880;DHT22;9572;52.378;13.404;2023-09-08T07:54:02;20.30;99.90
18880;DHT22;9572;52.378;13.404;2023-09-08T07:56:30;20.40;99.90
18880;DHT22;9572;52.378;13.404;2023-09-08T07:58:57;20.50;99.90
18880;DHT22;9572;52.378;13.404;2023-09-08T08:01:25;20.50;99.90
18880;DHT22;9572;52.378;13.404;2023-09-08T08:03:52;20.60;99.90
18880;DHT22;9572;52.378;13.404;2023-09-08T08:06:19;20.70;99.90
18880;DHT22;9572;52.378;13.404;2023-09-08T08:08:46;20.80;99.90
18880;DHT22;9572;52.378;13.404;2023-09-08T08:11:14;21.00;99.90
18880;DHT22;9572;52.378;13.404;2023-09-08T08:13:41;21.10;99.90
18880;DHT22;9572;52.378;13.404;2023-09-08T08:16:08;21.20;99.90
18880;DHT22;9572;52.378;13.404;2023-09-08T08:18:36;21.40;99.90
18880;DHT22;9572;52.378;13.404;2023-09-08T08:21:03;21.50;99.90
18880;DHT22;9572;52.378;13.404;2023-09-08T08:23:30;21.60;99.90
18880;DHT22;9572;52.378;13.404;2023-09-08T08:25:58;21.70;99.90
18880;DHT22;9572;52.378;13.404;2023-09-08T08:28:25;21.80;99.90
18880;DHT22;9572;52.378;13.404;2023-09-08T08:30:51;21.90;99.90
18880;DHT22;9572;52.378;13.404;2023-09-08T08:33:18;22.00;99.90
18880;DHT22;9572;52.378;13.404;2023-09-08T08:35:50;22.20;99.90
18880;DHT22;9572;52.378;13.404;2023-09-08T08:38:17;22.40;99.90
18880;DHT22;9572;52.378;13.404;2023-09-08T08:40:44;22.60;99.90
18880;DHT22;9572;52.378;13.404;2023-09-08T08:43:11;22.80;99.90
18880;DHT22;9572;52.378;13.404;2023-09-08T08:45:38;23.20;99.90
18880;DHT22;9572;52.378;13.404;2023-09-08T08:48:07;23.60;99.90
18880;DHT22;9572;52.378;13.404;2023-09-08T08:50:35;24.20;99.90
18880;DHT22;9572;52.378;13.404;2023-09-08T08:53:04;24.80;99.90
18880;DHT22;9572;52.378;13.404;2023-09-08T08:55:31;25.60;99.90
18880;DHT22;9572;52.378;13.404;2023-09-08T08:58:02;26.20;99.90
18880;DHT22;9572;52.378;13.404;2023-09-08T09:00:29;26.80;99.90
18880;DHT22;9572;52.378;13.404;2023-09-08T09:02:58;27.10;99.90
18880;DHT22;9572;52.378;13.404;2023-09-08T09:05:26;27.30;99.90
18880;DHT22;9572;52.378;13.404;2023-09-08T09:07:54;27.60;99.90
18880;DHT22;9572;52.378;13.404;2023-09-08T09:10:22;27.80;99.90
18880;DHT22;9572;52.378;13.404;2023-09-08T09:12:49;27.80;99.90
18880;DHT22;9572;52.378;13.404;2023-09-08T09:15:20;27.40;99.90
18880;DHT22;9572;52.378;13.404;2023-09-08T09:18:02;26.90;99.90
18880;DHT22;9572;52.378;13.404;2023-09-08T09:20:29;26.30;99.90
18880;DHT22;9572;52.378;13.404;2023-09-08T09:22:56;26.00;99.90
18880;DHT22;9572;52.378;13.404;2023-09-08T09:25:26;25.80;99.90
18880;DHT22;9572;52.378;13.404;2023-09-08T09:27:54;25.60;99.90
18880;DHT22;9572;52.378;13.404;2023-09-08T09:30:22;25.50;99.90
18880;DHT22;9572;52.378;13.404;2023-09-08T09:32:59;25.40;99.90
18880;DHT22;9572;52.378;13.404;2023-09-08T09:35:39;25.50;99.90
18880;DHT22;9572;52.378;13.404;2023-09-08T09:38:06;25.60;99.90
18880;DHT22;9572;52.378;13.404;2023-09-08T09:40:35;26.00;99.90
18880;DHT22;9572;52.378;13.404;2023-09-08T09:43:02;26.70;99.90
18880;DHT22;9572;52.378;13.404;2023-09-08T09:45:30;27.40;99.90
18880;DHT22;9572;52.378;13.404;2023-09-08T09:47:57;28.20;99.90
18880;DHT22;9572;52.378;13.404;2023-09-08T09:50:28;28.90;99.90
18880;DHT22;9572;52.378;13.404;2023-09-08T09:52:57;29.50;99.90
18880;DHT22;9572;52.378;13.404;2023-09-08T09:55:26;30.10;99.90
18880;DHT22;9572;52.378;13.404;2023-09-08T09:57:56;30.70;99.90
18880;DHT22;9572;52.378;13.404;2023-09-08T10:00:26;31.20;99.90
18880;DHT22;9572;52.378;13.404;2023-09-08T10:02:54;31.40;99.90
18880;DHT22;9572;52.378;13.404;2023-09-08T10:05:21;31.50;99.90
18880;DHT22;9572;52.378;13.404;2023-09-08T10:07:48;31.70;99.90
18880;DHT22;9572;52.378;13.404;2023-09-08T10:10:16;31.90;99.90
18880;DHT22;9572;52.378;13.404;2023-09-08T10:12:44;32.00;99.90
18880;DHT22;9572;52.378;13.404;2023-09-08T10:15:18;32.50;99.90
18880;DHT22;9572;52.378;13.404;2023-09-08T10:17:50;32.70;99.90
18880;DHT22;9572;52.378;13.404;2023-09-08T10:20:20;33.00;99.90
18880;DHT22;9572;52.378;13.404;2023-09-08T10:22:55;33.20;99.90
18880;DHT22;9572;52.378;13.404;2023-09-08T10:25:24;33.40;99.90
18880;DHT22;9572;52.378;13.404;2023-09-08T10:27:53;33.70;99.90
18880;DHT22;9572;52.378;13.404;2023-09-08T10:30:22;33.80;99.90
18880;DHT22;9572;52.378;13.404;2023-09-08T10:32:50;34.00;99.90
18880;DHT22;9572;52.378;13.404;2023-09-08T10:35:17;34.30;99.90
18880;DHT22;9572;52.378;13.404;2023-09-08T10:37:44;34.40;99.90
18880;DHT22;9572;52.378;13.404;2023-09-08T10:40:21;34.60;98.50
18880;DHT22;9572;52.378;13.404;2023-09-08T10:42:49;34.20;98.60
18880;DHT22;9572;52.378;13.404;2023-09-08T10:45:17;34.10;99.90
18880;DHT22;9572;52.378;13.404;2023-09-08T10:47:58;34.30;98.40
18880;DHT22;9572;52.378;13.404;2023-09-08T10:50:31;34.50;98.90
18880;DHT22;9572;52.378;13.404;2023-09-08T10:53:09;34.40;98.70
18880;DHT22;9572;52.378;13.404;2023-09-08T10:55:40;34.60;97.60
18880;DHT22;9572;52.378;13.404;2023-09-08T10:58:10;34.30;97.60
18880;DHT22;9572;52.378;13.404;2023-09-08T11:00:44;34.10;95.80
18880;DHT22;9572;52.378;13.404;2023-09-08T11:03:13;34.00;98.10
18880;DHT22;9572;52.378;13.404;2023-09-08T11:05:41;34.10;96.60
18880;DHT22;9572;52.378;13.404;2023-09-08T11:08:09;34.00;97.10
18880;DHT22;9572;52.378;13.404;2023-09-08T11:10:36;33.90;96.00
18880;DHT22;9572;52.378;13.404;2023-09-08T11:13:06;33.60;96.90
18880;DHT22;9572;52.378;13.404;2023-09-08T11:15:33;33.40;96.20
18880;DHT22;9572;52.378;13.404;2023-09-08T11:18:05;33.30;94.60
18880;DHT22;9572;52.378;13.404;2023-09-08T11:20:34;32.60;95.80
18880;DHT22;9572;52.378;13.404;2023-09-08T11:23:02;32.40;98.40
18880;DHT22;9572;52.378;13.404;2023-09-08T11:25:32;32.30;98.00
18880;DHT22;9572;52.378;13.404;2023-09-08T11:28:00;32.00;96.90
18880;DHT22;9572;52.378;13.404;2023-09-08T11:30:28;31.70;96.20
18880;DHT22;9572;52.378;13.404;2023-09-08T11:32:55;31.30;97.50
18880;DHT22;9572;52.378;13.404;2023-09-08T11:35:26;30.90;98.90
18880;DHT22;9572;52.378;13.404;2023-09-08T11:37:59;30.90;98.10
18880;DHT22;9572;52.378;13.404;2023-09-08T11:40:27;30.70;99.90
18880;DHT22;9572;52.378;13.404;2023-09-08T11:42:54;30.60;99.40
18880;DHT22;9572;52.378;13.404;2023-09-08T11:45:21;30.60;99.90
18880;DHT22;9572;52.378;13.404;2023-09-08T11:47:49;30.30;99.90
18880;DHT22;9572;52.378;13.404;2023-09-08T11:50:18;30.10;99.90
18880;DHT22;9572;52.378;13.404;2023-09-08T11:52:46;30.00;99.90
18880;DHT22;9572;52.378;13.404;2023-09-08T11:55:15;30.00;99.60
18880;DHT22;9572;52.378;13.404;2023-09-08T11:57:45;29.90;99.80
18880;DHT22;9572;52.378;13.404;2023-09-08T12:00:13;29.80;99.90
18880;DHT22;9572;52.378;13.404;2023-09-08T12:02:43;29.60;99.90
18880;DHT22;9572;52.378;13.404;2023-09-08T12:05:13;29.70;99.90
18880;DHT22;9572;52.378;13.404;2023-09-08T12:07:40;29.90;99.90
18880;DHT22;9572;52.378;13.404;2023-09-08T12:10:09;29.90;99.90
18880;DHT22;9572;52.378;13.404;2023-09-08T12:12:47;29.70;99.90
18880;DHT22;9572;52.378;13.404;2023-09-08T12:15:30;29.50;99.90
18880;DHT22;9572;52.378;13.404;2023-09-08T12:17:58;29.20;99.90
18880;DHT22;9572;52.378;13.404;2023-09-08T12:20:25;29.00;99.90
18880;DHT22;9572;52.378;13.404;2023-09-08T12:22:52;28.80;99.90
18880;DHT22;9572;52.378;13.404;2023-09-08T12:25:19;28.80;99.90
18880;DHT22;9572;52.378;13.404;2023-09-08T12:27:50;28.70;99.90
18880;DHT22;9572;52.378;13.404;2023-09-08T12:30:18;28.70;99.90
18880;DHT22;9572;52.378;13.404;2023-09-08T12:32:47;28.70;99.90
18880;DHT22;9572;52.378;13.404;2023-09-08T12:35:20;28.80;99.90
18880;DHT22;9572;52.378;13.404;2023-09-08T12:37:56;28.80;99.90
18880;DHT22;9572;52.378;13.404;2023-09-08T12:40:24;28.80;99.90
18880;DHT22;9572;52.378;13.404;2023-09-08T12:42:53;28.70;99.90
18880;DHT22;9572;52.378;13.404;2023-09-08T12:45:20;28.70;99.90
18880;DHT22;9572;52.378;13.404;2023-09-08T12:47:48;28.60;99.90
18880;DHT22;9572;52.378;13.404;2023-09-08T12:50:14;28.70;99.90
18880;DHT22;9572;52.378;13.404;2023-09-08T12:52:41;28.80;99.90
18880;DHT22;9572;52.378;13.404;2023-09-08T12:55:09;28.80;99.90
18880;DHT22;9572;52.378;13.404;2023-09-08T12:57:36;28.80;99.90
18880;DHT22;9572;52.378;13.404;2023-09-08T13:00:06;28.80;99.90
18880;DHT22;9572;52.378;13.404;2023-09-08T13:02:33;28.70;99.90
18880;DHT22;9572;52.378;13.404;2023-09-08T13:05:00;28.70;99.90
18880;DHT22;9572;52.378;13.404;2023-09-08T13:07:27;28.70;99.90
18880;DHT22;9572;52.378;13.404;2023-09-08T13:09:54;28.70;99.90
18880;DHT22;9572;52.378;13.404;2023-09-08T13:12:22;28.70;99.90
18880;DHT22;9572;52.378;13.404;2023-09-08T13:14:49;28.80;99.90
18880;DHT22;9572;52.378;13.404;2023-09-08T13:17:17;28.80;99.90
18880;DHT22;9572;52.378;13.404;2023-09-08T13:19:44;28.80;99.90
18880;DHT22;9572;52.378;13.404;2023-09-08T13:22:11;28.80;99.90
18880;DHT22;9572;52.378;13.404;2023-09-08T13:24:39;28.80;99.90
18880;DHT22;9572;52.378;13.404;2023-09-08T13:27:06;28.80;99.90
18880;DHT22;9572;52.378;13.404;2023-09-08T13:29:33;28.70;99.90
18880;DHT22;9572;52.378;13.404;2023-09-08T13:32:00;28.70;99.90
18880;DHT22;9572;52.378;13.404;2023-09-08T13:34:28;28.70;99.90
18880;DHT22;9572;52.378;13.404;2023-09-08T13:36:55;28.70;99.90
18880;DHT22;9572;52.378;13.404;2023-09-08T13:39:22;28.60;99.90
18880;DHT22;9572;52.378;13.404;2023-09-08T13:41:50;28.50;99.90
18880;DHT22;9572;52.378;13.404;2023-09-08T13:44:18;28.50;99.90
18880;DHT22;9572;52.378;13.404;2023-09-08T13:46:46;28.40;99.90
18880;DHT22;9572;52.378;13.404;2023-09-08T13:49:13;28.40;99.90
18880;DHT22;9572;52.378;13.404;2023-09-08T13:51:41;28.40;99.90
18880;DHT22;9572;52.378;13.404;2023-09-08T13:54:09;28.40;99.90
18880;DHT22;9572;52.378;13.404;2023-09-08T13:56:38;28.40;99.90
18880;DHT22;9572;52.378;13.404;2023-09-08T13:59:04;28.40;99.90
18880;DHT22;9572;52.378;13.404;2023-09-08T14:01:33;28.40;99.90
18880;DHT22;9572;52.378;13.404;2023-09-08T14:04:00;28.40;99.90
18880;DHT22;9572;52.378;13.404;2023-09-08T14:06:27;28.30;99.90
18880;DHT22;9572;52.378;13.404;2023-09-08T14:08:56;28.30;99.90
18880;DHT22;9572;52.378;13.404;2023-09-08T14:11:23;28.20;99.90
18880;DHT22;9572;52.378;13.404;2023-09-08T14:13:50;28.20;99.90
18880;DHT22;9572;52.378;13.404;2023-09-08T14:16:17;28.20;99.90
18880;DHT22;9572;52.378;13.404;2023-09-08T14:18:45;28.20;99.90
18880;DHT22;9572;52.378;13.404;2023-09-08T14:21:11;28.20;99.90
18880;DHT22;9572;52.378;13.404;2023-09-08T14:23:38;28.20;99.90
18880;DHT22;9572;52.378;13.404;2023-09-08T14:26:07;28.30;99.90
18880;DHT22;9572;52.378;13.404;2023-09-08T14:28:34;28.30;99.90
18880;DHT22;9572;52.378;13.404;2023-09-08T14:31:02;28.30;99.90
18880;DHT22;9572;52.378;13.404;2023-09-08T14:33:29;28.30;99.90
18880;DHT22;9572;52.378;13.404;2023-09-08T14:35:56;28.30;99.90
18880;DHT22;9572;52.378;13.404;2023-09-08T14:38:23;28.30;99.90
18880;DHT22;9572;52.378;13.404;2023-09-08T14:40:57;28.20;99.90
18880;DHT22;9572;52.378;13.404;2023-09-08T14:43:26;28.20;99.90
18880;DHT22;9572;52.378;13.404;2023-09-08T14:45:55;28.10;99.90
18880;DHT22;9572;52.378;13.404;2023-09-08T14:48:23;28.00;99.90
18880;DHT22;9572;52.378;13.404;2023-09-08T14:50:50;27.90;99.90
18880;DHT22;9572;52.378;13.404;2023-09-08T14:53:17;27.90;99.90
18880;DHT22;9572;52.378;13.404;2023-09-08T14:55:44;27.90;99.90
18880;DHT22;9572;52.378;13.404;2023-09-08T14:58:13;27.90;99.90
18880;DHT22;9572;52.378;13.404;2023-09-08T15:00:42;27.90;99.90
18880;DHT22;9572;52.378;13.404;2023-09-08T15:03:08;27.80;99.90
18880;DHT22;9572;52.378;13.404;2023-09-08T15:05:36;27.70;99.90
18880;DHT22;9572;52.378;13.404;2023-09-08T15:08:03;27.80;99.90
18880;DHT22;9572;52.378;13.404;2023-09-08T15:10:30;27.70;99.90
18880;DHT22;9572;52.378;13.404;2023-09-08T15:12:57;27.70;99.90
18880;DHT22;9572;52.378;13.404;2023-09-08T15:15:24;27.60;99.90
18880;DHT22;9572;52.378;13.404;2023-09-08T15:17:53;27.60;99.90
18880;DHT22;9572;52.378;13.404;2023-09-08T15:20:21;27.60;99.90
18880;DHT22;9572;52.378;13.404;2023-09-08T15:22:48;27.50;99.90
18880;DHT22;9572;52.378;13.404;2023-09-08T15:25:15;27.40;99.90
18880;DHT22;9572;52.378;13.404;2023-09-08T15:27:42;27.40;99.90
18880;DHT22;9572;52.378;13.404;2023-09-08T15:30:10;27.40;99.90
18880;DHT22;9572;52.378;13.404;2023-09-08T15:32:37;27.30;99.90
18880;DHT22;9572;52.378;13.404;2023-09-08T15:35:07;27.30;99.90